GMAD/AGA METAR and TAF weather

Enter ICAO airport designator
Station Type Date Time Source
GMAD METAR 2018/01/22 11:30 UTC NOAA

GMAD 221130Z 03006KT 360V080 CAVOK 21/M00 Q1026 NOSIG


Station Type Date Time Source
GMAD Decoded METAR 2018/01/22 11:30 UTC NOAA

Agadir Al Massira, Morocco (GMAD) 30-20N 009-24W 74M
Jan 22, 2018 - 06:30 AM EST / 2018.01.22 1130 UTC
Wind: from the NNE (030 degrees) at 7 MPH (6 KT) (direction variable):0
Visibility: greater than 7 mile(s):0
Temperature: 69 F (21 C)
Dew Point: 32 F (0 C)
Relative Humidity: 24%
Pressure (altimeter): 30.30 in. Hg (1026 hPa)
ob: GMAD 221130Z 03006KT 360V080 CAVOK 21/M00 Q1026 NOSIG
cycle: 11

Station Type Date Time Source
GMAD TAF 2018/01/22 12:18 UTC NOAA

TAF GMAD 221100Z 2212/2318 28011KT CAVOK
BECMG 2219/2222 09006KT
BECMG 2312/2314 28012KT


Example: see airport list